sensor_id;sensor_type;location;lat;lon;timestamp;pressure;altitude;pressure_sealevel;temperature;humidity
14273;BME280;7220;49.450;11.052;2023-02-13T00:00:29;100195.59;;;5.42;100.00
14273;BME280;7220;49.450;11.052;2023-02-13T00:04:30;100202.59;;;5.58;100.00
14273;BME280;7220;49.450;11.052;2023-02-13T00:08:30;100194.69;;;5.53;100.00
14273;BME280;7220;49.450;11.052;2023-02-13T00:12:30;100191.19;;;5.51;100.00
14273;BME280;7220;49.450;11.052;2023-02-13T00:16:30;100198.25;;;5.43;100.00
14273;BME280;7220;49.450;11.052;2023-02-13T00:20:31;100199.13;;;5.41;100.00
14273;BME280;7220;49.450;11.052;2023-02-13T00:24:31;100200.00;;;5.29;100.00
14273;BME280;7220;49.450;11.052;2023-02-13T00:28:31;100199.09;;;5.02;100.00
14273;BME280;7220;49.450;11.052;2023-02-13T00:32:33;100200.75;;;4.60;100.00
14273;BME280;7220;49.450;11.052;2023-02-13T00:36:33;100206.81;;;4.32;100.00
14273;BME280;7220;49.450;11.052;2023-02-13T00:40:33;100217.22;;;4.07;100.00
14273;BME280;7220;49.450;11.052;2023-02-13T00:44:33;100221.34;;;3.63;100.00
14273;BME280;7220;49.450;11.052;2023-02-13T00:48:34;100218.59;;;3.50;100.00
14273;BME280;7220;49.450;11.052;2023-02-13T00:52:35;100215.91;;;3.39;100.00
14273;BME280;7220;49.450;11.052;2023-02-13T00:56:35;100231.44;;;3.14;100.00
14273;BME280;7220;49.450;11.052;2023-02-13T01:00:36;100215.53;;;2.95;100.00
14273;BME280;7220;49.450;11.052;2023-02-13T01:04:37;100220.88;;;3.06;100.00
14273;BME280;7220;49.450;11.052;2023-02-13T01:08:38;100213.00;;;3.06;100.00
14273;BME280;7220;49.450;11.052;2023-02-13T01:12:39;100213.91;;;3.10;100.00
14273;BME280;7220;49.450;11.052;2023-02-13T01:16:39;100210.34;;;3.02;100.00
14273;BME280;7220;49.450;11.052;2023-02-13T01:20:40;100213.88;;;3.05;100.00
14273;BME280;7220;49.450;11.052;2023-02-13T01:24:41;100215.63;;;3.06;100.00
14273;BME280;7220;49.450;11.052;2023-02-13T01:28:41;100212.97;;;3.03;100.00
14273;BME280;7220;49.450;11.052;2023-02-13T01:32:43;100203.97;;;2.78;100.00
14273;BME280;7220;49.450;11.052;2023-02-13T01:36:44;100203.22;;;2.88;100.00
14273;BME280;7220;49.450;11.052;2023-02-13T01:40:50;100206.66;;;2.84;100.00
14273;BME280;7220;49.450;11.052;2023-02-13T01:44:52;100203.97;;;2.79;100.00
14273;BME280;7220;49.450;11.052;2023-02-13T01:48:56;100211.97;;;2.89;100.00
14273;BME280;7220;49.450;11.052;2023-02-13T01:53:03;100210.94;;;2.77;100.00
14273;BME280;7220;49.450;11.052;2023-02-13T01:57:21;100210.00;;;2.69;100.00
14273;BME280;7220;49.450;11.052;2023-02-13T02:01:22;100206.44;;;2.62;100.00
14273;BME280;7220;49.450;11.052;2023-02-13T02:05:26;100202.84;;;2.54;100.00
14273;BME280;7220;49.450;11.052;2023-02-13T02:09:31;100203.69;;;2.51;100.00
14273;BME280;7220;49.450;11.052;2023-02-13T02:13:31;100202.00;;;2.58;100.00
14273;BME280;7220;49.450;11.052;2023-02-13T02:17:32;100198.41;;;2.48;100.00
14273;BME280;7220;49.450;11.052;2023-02-13T02:21:40;100206.09;;;2.34;100.00
14273;BME280;7220;49.450;11.052;2023-02-13T02:34:40;100194.63;;;2.23;100.00
14273;BME280;7220;49.450;11.052;2023-02-13T02:39:22;100202.38;;;2.14;100.00
14273;BME280;7220;49.450;11.052;2023-02-13T02:44:06;100193.53;;;2.09;100.00
14273;BME280;7220;49.450;11.052;2023-02-13T02:48:29;100206.38;;;1.88;100.00
14273;BME280;7220;49.450;11.052;2023-02-13T02:57:08;100201.09;;;1.84;100.00
14273;BME280;7220;49.450;11.052;2023-02-13T03:01:13;100198.50;;;1.87;100.00
14273;BME280;7220;49.450;11.052;2023-02-13T03:05:33;100194.88;;;1.76;100.00
14273;BME280;7220;49.450;11.052;2023-02-13T03:10:02;100197.28;;;1.60;100.00
14273;BME280;7220;49.450;11.052;2023-02-13T03:14:23;100191.13;;;1.58;100.00
14273;BME280;7220;49.450;11.052;2023-02-13T03:18:26;100205.06;;;1.55;100.00
14273;BME280;7220;49.450;11.052;2023-02-13T03:40:13;100217.19;;;1.50;100.00
14273;BME280;7220;49.450;11.052;2023-02-13T03:44:34;100213.50;;;1.37;100.00
14273;BME280;7220;49.450;11.052;2023-02-13T03:48:37;100223.78;;;1.23;100.00
14273;BME280;7220;49.450;11.052;2023-02-13T03:53:04;100217.34;;;1.06;100.00
14273;BME280;7220;49.450;11.052;2023-02-13T03:57:06;100217.22;;;0.98;100.00
14273;BME280;7220;49.450;11.052;2023-02-13T04:01:28;100233.50;;;0.82;100.00
14273;BME280;7220;49.450;11.052;2023-02-13T04:05:32;100235.50;;;0.97;100.00
14273;BME280;7220;49.450;11.052;2023-02-13T04:09:39;100232.81;;;0.92;100.00
14273;BME280;7220;49.450;11.052;2023-02-13T04:15:13;100235.25;;;0.83;100.00
14273;BME280;7220;49.450;11.052;2023-02-13T04:18:41;100232.56;;;0.78;100.00
14273;BME280;7220;49.450;11.052;2023-02-13T04:22:45;100241.97;;;0.68;100.00
14273;BME280;7220;49.450;11.052;2023-02-13T04:26:45;100230.56;;;0.65;100.00
14273;BME280;7220;49.450;11.052;2023-02-13T04:30:46;100238.31;;;0.60;100.00
14273;BME280;7220;49.450;11.052;2023-02-13T04:34:46;100237.41;;;0.58;100.00
14273;BME280;7220;49.450;11.052;2023-02-13T04:38:46;100229.53;;;0.56;100.00
14273;BME280;7220;49.450;11.052;2023-02-13T04:42:47;100228.88;;;0.68;100.00
14273;BME280;7220;49.450;11.052;2023-02-13T04:46:48;100226.34;;;0.71;100.00
14273;BME280;7220;49.450;11.052;2023-02-13T04:50:48;100225.63;;;0.80;100.00
14273;BME280;7220;49.450;11.052;2023-02-13T04:54:48;100225.53;;;0.77;100.00
14273;BME280;7220;49.450;11.052;2023-02-13T04:58:49;100225.53;;;0.75;100.00
14273;BME280;7220;49.450;11.052;2023-02-13T05:02:50;100222.81;;;0.69;100.00
14273;BME280;7220;49.450;11.052;2023-02-13T05:06:50;100234.03;;;0.65;100.00
14273;BME280;7220;49.450;11.052;2023-02-13T05:10:51;100228.81;;;0.65;100.00
14273;BME280;7220;49.450;11.052;2023-02-13T05:14:51;100228.78;;;0.63;100.00
14273;BME280;7220;49.450;11.052;2023-02-13T05:18:51;100226.03;;;0.56;100.00
14273;BME280;7220;49.450;11.052;2023-02-13T05:22:54;100231.34;;;0.60;100.00
14273;BME280;7220;49.450;11.052;2023-02-13T05:27:13;100241.66;;;0.53;100.00
14273;BME280;7220;49.450;11.052;2023-02-13T05:31:13;100232.66;;;0.38;100.00
14273;BME280;7220;49.450;11.052;2023-02-13T05:35:13;100231.94;;;0.45;100.00
14273;BME280;7220;49.450;11.052;2023-02-13T05:39:14;100251.03;;;0.41;100.00
14273;BME280;7220;49.450;11.052;2023-02-13T05:43:15;100245.34;;;0.62;100.00
14273;BME280;7220;49.450;11.052;2023-02-13T05:47:15;100249.34;;;0.43;100.00
14273;BME280;7220;49.450;11.052;2023-02-13T05:51:15;100263.94;;;0.32;100.00
14273;BME280;7220;49.450;11.052;2023-02-13T05:55:16;100260.53;;;0.38;100.00
14273;BME280;7220;49.450;11.052;2023-02-13T05:59:16;100263.03;;;0.31;100.00
14273;BME280;7220;49.450;11.052;2023-02-13T06:03:16;100264.69;;;0.26;100.00
14273;BME280;7220;49.450;11.052;2023-02-13T06:07:16;100263.31;;;0.04;100.00
14273;BME280;7220;49.450;11.052;2023-02-13T06:11:17;100272.00;;;0.03;100.00
14273;BME280;7220;49.450;11.052;2023-02-13T06:15:18;100273.34;;;-0.14;100.00
14273;BME280;7220;49.450;11.052;2023-02-13T06:19:19;100273.31;;;-0.16;100.00
14273;BME280;7220;49.450;11.052;2023-02-13T06:23:19;100274.91;;;-0.23;100.00
14273;BME280;7220;49.450;11.052;2023-02-13T06:27:19;100281.09;;;-0.19;100.00
14273;BME280;7220;49.450;11.052;2023-02-13T06:31:20;100282.97;;;-0.13;100.00
14273;BME280;7220;49.450;11.052;2023-02-13T06:35:20;100288.31;;;-0.07;100.00
14273;BME280;7220;49.450;11.052;2023-02-13T06:39:20;100283.81;;;-0.14;100.00
14273;BME280;7220;49.450;11.052;2023-02-13T06:43:21;100296.72;;;-0.22;100.00
14273;BME280;7220;49.450;11.052;2023-02-13T06:47:21;100281.69;;;-0.31;100.00
14273;BME280;7220;49.450;11.052;2023-02-13T06:51:21;100294.03;;;-0.24;100.00
14273;BME280;7220;49.450;11.052;2023-02-13T06:55:21;100302.03;;;-0.18;100.00
14273;BME280;7220;49.450;11.052;2023-02-13T06:59:22;100304.13;;;-0.03;100.00
14273;BME280;7220;49.450;11.052;2023-02-13T07:03:22;100305.22;;;0.07;100.00
14273;BME280;7220;49.450;11.052;2023-02-13T07:07:23;100305.38;;;0.13;100.00
14273;BME280;7220;49.450;11.052;2023-02-13T07:11:24;100306.34;;;0.19;100.00
14273;BME280;7220;49.450;11.052;2023-02-13T07:15:24;100312.56;;;0.24;100.00
14273;BME280;7220;49.450;11.052;2023-02-13T07:19:24;100315.09;;;0.19;100.00
14273;BME280;7220;49.450;11.052;2023-02-13T07:23:25;100317.88;;;0.28;100.00
14273;BME280;7220;49.450;11.052;2023-02-13T07:27:25;100305.63;;;0.26;100.00
14273;BME280;7220;49.450;11.052;2023-02-13T07:31:28;100317.59;;;0.14;100.00
14273;BME280;7220;49.450;11.052;2023-02-13T07:35:28;100310.94;;;0.29;100.00
14273;BME280;7220;49.450;11.052;2023-02-13T07:39:29;100317.97;;;0.33;100.00
14273;BME280;7220;49.450;11.052;2023-02-13T07:43:30;100321.19;;;0.20;100.00
14273;BME280;7220;49.450;11.052;2023-02-13T07:47:32;100318.94;;;0.37;100.00
14273;BME280;7220;49.450;11.052;2023-02-13T07:51:33;100321.66;;;0.41;100.00
14273;BME280;7220;49.450;11.052;2023-02-13T07:55:33;100326.97;;;0.44;100.00
14273;BME280;7220;49.450;11.052;2023-02-13T07:59:33;100326.88;;;0.41;100.00
14273;BME280;7220;49.450;11.052;2023-02-13T08:03:33;100325.72;;;0.68;100.00
14273;BME280;7220;49.450;11.052;2023-02-13T08:07:34;100324.88;;;0.71;100.00
14273;BME280;7220;49.450;11.052;2023-02-13T08:11:34;100334.53;;;0.73;100.00
14273;BME280;7220;49.450;11.052;2023-02-13T08:15:53;100322.06;;;0.60;100.00
14273;BME280;7220;49.450;11.052;2023-02-13T08:19:54;100324.06;;;0.73;100.00
14273;BME280;7220;49.450;11.052;2023-02-13T08:23:54;100321.53;;;0.76;100.00
14273;BME280;7220;49.450;11.052;2023-02-13T08:27:54;100322.63;;;0.88;100.00
14273;BME280;7220;49.450;11.052;2023-02-13T08:31:55;100319.91;;;0.83;100.00
14273;BME280;7220;49.450;11.052;2023-02-13T08:35:55;100327.78;;;0.85;100.00
14273;BME280;7220;49.450;11.052;2023-02-13T08:39:56;100320.16;;;0.97;100.00
14273;BME280;7220;49.450;11.052;2023-02-13T08:43:57;100321.75;;;1.36;100.00
14273;BME280;7220;49.450;11.052;2023-02-13T08:47:58;100316.59;;;1.39;100.00
14273;BME280;7220;49.450;11.052;2023-02-13T08:52:00;100320.56;;;1.69;100.00
14273;BME280;7220;49.450;11.052;2023-02-13T08:56:00;100327.22;;;1.49;100.00
14273;BME280;7220;49.450;11.052;2023-02-13T09:00:01;100326.41;;;1.53;100.00
14273;BME280;7220;49.450;11.052;2023-02-13T09:04:01;100321.81;;;1.92;100.00
14273;BME280;7220;49.450;11.052;2023-02-13T09:08:02;100323.28;;;1.74;100.00
14273;BME280;7220;49.450;11.052;2023-02-13T09:12:03;100321.56;;;1.76;100.00
14273;BME280;7220;49.450;11.052;2023-02-13T09:16:05;100313.88;;;1.87;100.00
14273;BME280;7220;49.450;11.052;2023-02-13T09:20:06;100320.88;;;1.88;100.00
14273;BME280;7220;49.450;11.052;2023-02-13T09:24:08;100309.69;;;1.98;100.00
14273;BME280;7220;49.450;11.052;2023-02-13T09:28:08;100303.47;;;1.93;100.00
14273;BME280;7220;49.450;11.052;2023-02-13T09:32:08;100316.56;;;1.90;100.00
14273;BME280;7220;49.450;11.052;2023-02-13T09:36:15;100311.25;;;1.88;100.00
14273;BME280;7220;49.450;11.052;2023-02-13T09:40:34;100300.19;;;2.07;100.00
14273;BME280;7220;49.450;11.052;2023-02-13T09:44:39;100321.19;;;2.08;100.00
14273;BME280;7220;49.450;11.052;2023-02-13T09:48:46;100313.47;;;2.19;100.00
14273;BME280;7220;49.450;11.052;2023-02-13T09:52:49;100311.91;;;2.32;100.00
14273;BME280;7220;49.450;11.052;2023-02-13T09:56:57;100311.13;;;2.39;100.00
14273;BME280;7220;49.450;11.052;2023-02-13T10:01:13;100312.03;;;2.41;100.00
14273;BME280;7220;49.450;11.052;2023-02-13T10:09:53;100300.34;;;2.87;100.00
14273;BME280;7220;49.450;11.052;2023-02-13T10:18:16;100302.91;;;2.82;100.00
14273;BME280;7220;49.450;11.052;2023-02-13T10:22:34;100305.81;;;3.07;100.00
14273;BME280;7220;49.450;11.052;2023-02-13T10:26:39;100294.66;;;3.29;100.00
14273;BME280;7220;49.450;11.052;2023-02-13T10:30:51;100300.81;;;3.30;100.00
14273;BME280;7220;49.450;11.052;2023-02-13T10:34:56;100292.97;;;3.38;100.00
14273;BME280;7220;49.450;11.052;2023-02-13T10:39:01;100297.50;;;3.51;100.00
14273;BME280;7220;49.450;11.052;2023-02-13T10:43:07;100290.59;;;3.66;100.00
14273;BME280;7220;49.450;11.052;2023-02-13T11:05:00;100279.47;;;4.04;100.00
14273;BME280;7220;49.450;11.052;2023-02-13T11:09:01;100293.56;;;4.12;100.00
14273;BME280;7220;49.450;11.052;2023-02-13T11:13:23;100274.38;;;4.29;100.00
14273;BME280;7220;49.450;11.052;2023-02-13T11:17:26;100273.50;;;4.33;100.00
14273;BME280;7220;49.450;11.052;2023-02-13T11:21:33;100268.31;;;4.47;100.00
14273;BME280;7220;49.450;11.052;2023-02-13T11:25:34;100269.22;;;4.60;100.00
14273;BME280;7220;49.450;11.052;2023-02-13T11:29:36;100260.50;;;4.76;100.00
14273;BME280;7220;49.450;11.052;2023-02-13T11:33:37;100263.19;;;4.88;100.00
14273;BME280;7220;49.450;11.052;2023-02-13T11:37:37;100262.34;;;5.05;100.00
14273;BME280;7220;49.450;11.052;2023-02-13T11:41:41;100269.38;;;5.15;100.00
14273;BME280;7220;49.450;11.052;2023-02-13T11:45:42;100262.38;;;5.20;100.00
14273;BME280;7220;49.450;11.052;2023-02-13T11:49:45;100255.34;;;5.47;100.00
14273;BME280;7220;49.450;11.052;2023-02-13T11:53:46;100258.00;;;5.60;100.00
14273;BME280;7220;49.450;11.052;2023-02-13T11:57:55;100249.19;;;6.07;99.80
14273;BME280;7220;49.450;11.052;2023-02-13T12:06:17;100219.06;;;12.44;70.49
14273;BME280;7220;49.450;11.052;2023-02-13T12:10:29;100214.25;;;13.96;60.92
14273;BME280;7220;49.450;11.052;2023-02-13T12:14:45;100229.41;;;12.57;61.81
14273;BME280;7220;49.450;11.052;2023-02-13T12:18:50;100211.81;;;12.18;63.64
14273;BME280;7220;49.450;11.052;2023-02-13T12:23:04;100209.06;;;11.17;67.22
14273;BME280;7220;49.450;11.052;2023-02-13T12:57:48;100157.72;;;11.48;65.62
14273;BME280;7220;49.450;11.052;2023-02-13T13:10:34;100156.81;;;12.15;62.18
14273;BME280;7220;49.450;11.052;2023-02-13T13:15:45;100137.25;;;12.46;60.56
14273;BME280;7220;49.450;11.052;2023-02-13T13:23:30;100136.72;;;12.92;58.32
14273;BME280;7220;49.450;11.052;2023-02-13T13:27:35;100131.91;;;13.03;57.54
14273;BME280;7220;49.450;11.052;2023-02-13T13:31:36;100133.81;;;12.71;57.39
14273;BME280;7220;49.450;11.052;2023-02-13T13:35:38;100135.84;;;12.63;57.57
14273;BME280;7220;49.450;11.052;2023-02-13T13:40:15;100144.69;;;12.65;58.38
14273;BME280;7220;49.450;11.052;2023-02-13T13:48:54;100120.84;;;13.43;54.59
14273;BME280;7220;49.450;11.052;2023-02-13T13:53:16;100117.53;;;13.61;53.74
14273;BME280;7220;49.450;11.052;2023-02-13T14:01:45;100108.75;;;14.07;51.53
14273;BME280;7220;49.450;11.052;2023-02-13T14:06:03;100101.22;;;14.18;50.77
14273;BME280;7220;49.450;11.052;2023-02-13T14:10:05;100104.25;;;14.31;50.36
14273;BME280;7220;49.450;11.052;2023-02-13T14:18:28;100100.94;;;13.77;51.21
14273;BME280;7220;49.450;11.052;2023-02-13T14:22:33;100100.19;;;13.48;51.73
14273;BME280;7220;49.450;11.052;2023-02-13T14:26:37;100104.28;;;13.31;52.62
14273;BME280;7220;49.450;11.052;2023-02-13T14:30:38;100113.72;;;13.15;52.72
14273;BME280;7220;49.450;11.052;2023-02-13T14:34:39;100107.50;;;12.87;53.41
14273;BME280;7220;49.450;11.052;2023-02-13T14:38:40;100108.69;;;12.50;54.25
14273;BME280;7220;49.450;11.052;2023-02-13T14:42:43;100115.34;;;12.05;54.90
14273;BME280;7220;49.450;11.052;2023-02-13T14:46:47;100122.44;;;11.40;58.05
14273;BME280;7220;49.450;11.052;2023-02-13T14:50:51;100124.56;;;11.26;57.07
14273;BME280;7220;49.450;11.052;2023-02-13T14:54:57;100112.63;;;11.06;59.22
14273;BME280;7220;49.450;11.052;2023-02-13T14:59:13;100112.09;;;10.93;59.67
14273;BME280;7220;49.450;11.052;2023-02-13T15:07:34;100103.00;;;10.64;60.73
14273;BME280;7220;49.450;11.052;2023-02-13T15:11:41;100104.06;;;10.57;60.12
14273;BME280;7220;49.450;11.052;2023-02-13T15:15:42;100106.13;;;10.44;60.83
14273;BME280;7220;49.450;11.052;2023-02-13T15:19:46;100106.13;;;10.44;60.78
14273;BME280;7220;49.450;11.052;2023-02-13T15:23:54;100104.06;;;10.16;61.60
14273;BME280;7220;49.450;11.052;2023-02-13T15:27:55;100096.28;;;10.07;61.98
14273;BME280;7220;49.450;11.052;2023-02-13T15:31:57;100099.25;;;9.91;62.81
14273;BME280;7220;49.450;11.052;2023-02-13T15:36:15;100109.09;;;9.86;63.53
14273;BME280;7220;49.450;11.052;2023-02-13T15:40:29;100105.69;;;9.78;63.75
14273;BME280;7220;49.450;11.052;2023-02-13T15:44:34;100104.94;;;9.73;64.17
14273;BME280;7220;49.450;11.052;2023-02-13T15:48:36;100114.06;;;9.58;64.02
14273;BME280;7220;49.450;11.052;2023-02-13T15:52:37;100101.16;;;9.38;64.53
14273;BME280;7220;49.450;11.052;2023-02-13T15:56:38;100103.25;;;9.20;65.63
14273;BME280;7220;49.450;11.052;2023-02-13T16:00:43;100100.69;;;9.14;66.08
14273;BME280;7220;49.450;11.052;2023-02-13T16:04:45;100101.78;;;9.02;66.47
14273;BME280;7220;49.450;11.052;2023-02-13T16:08:57;100110.97;;;8.81;67.66
14273;BME280;7220;49.450;11.052;2023-02-13T16:13:01;100108.31;;;8.81;67.61
14273;BME280;7220;49.450;11.052;2023-02-13T16:17:05;100113.94;;;8.59;68.24
14273;BME280;7220;49.450;11.052;2023-02-13T16:21:06;100123.72;;;8.56;68.66
14273;BME280;7220;49.450;11.052;2023-02-13T16:29:21;100119.88;;;8.10;70.71
14273;BME280;7220;49.450;11.052;2023-02-13T16:33:29;100114.72;;;8.00;71.73
14273;BME280;7220;49.450;11.052;2023-02-13T16:37:32;100121.03;;;7.87;72.44
14273;BME280;7220;49.450;11.052;2023-02-13T16:41:32;100131.63;;;7.87;71.58
14273;BME280;7220;49.450;11.052;2023-02-13T16:45:33;100136.19;;;7.72;72.74
14273;BME280;7220;49.450;11.052;2023-02-13T16:49:35;100133.69;;;7.60;73.58
14273;BME280;7220;49.450;11.052;2023-02-13T16:53:36;100124.97;;;7.52;73.58
14273;BME280;7220;49.450;11.052;2023-02-13T16:57:37;100134.75;;;7.44;73.88
14273;BME280;7220;49.450;11.052;2023-02-13T17:01:39;100146.34;;;7.25;74.60
14273;BME280;7220;49.450;11.052;2023-02-13T17:05:40;100126.16;;;7.17;75.27
14273;BME280;7220;49.450;11.052;2023-02-13T17:09:40;100135.88;;;7.13;75.82
14273;BME280;7220;49.450;11.052;2023-02-13T17:13:40;100142.00;;;7.20;76.08
14273;BME280;7220;49.450;11.052;2023-02-13T17:17:41;100148.06;;;7.33;75.25
14273;BME280;7220;49.450;11.052;2023-02-13T17:21:41;100152.63;;;7.14;75.45
14273;BME280;7220;49.450;11.052;2023-02-13T17:25:41;100160.75;;;6.87;76.78
14273;BME280;7220;49.450;11.052;2023-02-13T17:29:45;100159.88;;;6.87;77.27
14273;BME280;7220;49.450;11.052;2023-02-13T17:33:45;100157.34;;;6.73;78.13
14273;BME280;7220;49.450;11.052;2023-02-13T17:37:45;100159.16;;;6.60;78.26
14273;BME280;7220;49.450;11.052;2023-02-13T17:41:46;100157.47;;;6.53;79.62
14273;BME280;7220;49.450;11.052;2023-02-13T17:45:47;100148.75;;;6.34;80.58
14273;BME280;7220;49.450;11.052;2023-02-13T17:49:48;100158.47;;;6.30;81.16
14273;BME280;7220;49.450;11.052;2023-02-13T17:53:49;100160.25;;;6.25;81.98
14273;BME280;7220;49.450;11.052;2023-02-13T17:57:50;100162.03;;;6.13;81.93
14273;BME280;7220;49.450;11.052;2023-02-13T18:01:51;100167.34;;;6.09;82.98
14273;BME280;7220;49.450;11.052;2023-02-13T18:05:51;100165.63;;;6.00;83.04
14273;BME280;7220;49.450;11.052;2023-02-13T18:09:51;100168.19;;;6.17;82.26
14273;BME280;7220;49.450;11.052;2023-02-13T18:13:52;100176.09;;;6.19;81.32
14273;BME280;7220;49.450;11.052;2023-02-13T18:17:52;100167.31;;;6.13;80.81
14273;BME280;7220;49.450;11.052;2023-02-13T18:21:52;100176.16;;;5.97;81.46
14273;BME280;7220;49.450;11.052;2023-02-13T18:25:53;100177.06;;;5.90;81.99
14273;BME280;7220;49.450;11.052;2023-02-13T18:29:54;100186.75;;;5.78;82.38
14273;BME280;7220;49.450;11.052;2023-02-13T18:33:55;100177.13;;;5.56;83.99
14273;BME280;7220;49.450;11.052;2023-02-13T18:37:55;100177.97;;;5.70;83.22
14273;BME280;7220;49.450;11.052;2023-02-13T18:41:56;100173.63;;;5.35;85.06
14273;BME280;7220;49.450;11.052;2023-02-13T18:45:56;100172.75;;;5.20;87.03
14273;BME280;7220;49.450;11.052;2023-02-13T18:49:57;100185.94;;;5.20;87.25
14273;BME280;7220;49.450;11.052;2023-02-13T18:53:57;100190.34;;;5.12;87.43
14273;BME280;7220;49.450;11.052;2023-02-13T18:57:58;100183.25;;;4.77;89.36
14273;BME280;7220;49.450;11.052;2023-02-13T19:01:59;100185.84;;;4.58;91.34
14273;BME280;7220;49.450;11.052;2023-02-13T19:06:03;100191.09;;;4.58;91.56
14273;BME280;7220;49.450;11.052;2023-02-13T19:10:04;100191.09;;;4.54;91.46
14273;BME280;7220;49.450;11.052;2023-02-13T19:14:06;100200.66;;;4.29;93.10
14273;BME280;7220;49.450;11.052;2023-02-13T19:18:06;100193.56;;;4.12;93.97
14273;BME280;7220;49.450;11.052;2023-02-13T19:22:07;100191.75;;;4.00;94.33
14273;BME280;7220;49.450;11.052;2023-02-13T19:26:15;100204.78;;;3.80;96.85
14273;BME280;7220;49.450;11.052;2023-02-13T19:30:16;100196.88;;;3.77;96.75
14273;BME280;7220;49.450;11.052;2023-02-13T19:34:16;100202.97;;;3.68;96.55
14273;BME280;7220;49.450;11.052;2023-02-13T19:38:17;100201.94;;;3.46;98.40
14273;BME280;7220;49.450;11.052;2023-02-13T19:42:18;100211.47;;;3.31;99.68
14273;BME280;7220;49.450;11.052;2023-02-13T19:46:24;100228.91;;;3.22;100.00
14273;BME280;7220;49.450;11.052;2023-02-13T19:50:25;100220.06;;;3.12;100.00
14273;BME280;7220;49.450;11.052;2023-02-13T19:54:25;100224.22;;;2.91;100.00
14273;BME280;7220;49.450;11.052;2023-02-13T19:58:26;100220.75;;;2.91;100.00
14273;BME280;7220;49.450;11.052;2023-02-13T20:02:26;100225.13;;;2.92;100.00
14273;BME280;7220;49.450;11.052;2023-02-13T20:06:30;100218.94;;;2.85;100.00
14273;BME280;7220;49.450;11.052;2023-02-13T20:10:31;100221.59;;;2.88;100.00
14273;BME280;7220;49.450;11.052;2023-02-13T20:14:32;100222.50;;;2.93;100.00
14273;BME280;7220;49.450;11.052;2023-02-13T20:18:34;100226.75;;;2.80;100.00
14273;BME280;7220;49.450;11.052;2023-02-13T20:22:34;100209.28;;;2.82;100.00
14273;BME280;7220;49.450;11.052;2023-02-13T20:26:35;100209.28;;;2.86;100.00
14273;BME280;7220;49.450;11.052;2023-02-13T20:30:42;100198.81;;;2.89;100.00
14273;BME280;7220;49.450;11.052;2023-02-13T20:34:43;100203.31;;;3.00;100.00
14273;BME280;7220;49.450;11.052;2023-02-13T20:38:44;100206.84;;;3.03;100.00
14273;BME280;7220;49.450;11.052;2023-02-13T20:42:44;100196.28;;;2.98;100.00
14273;BME280;7220;49.450;11.052;2023-02-13T20:46:44;100198.78;;;2.84;100.00
14273;BME280;7220;49.450;11.052;2023-02-13T20:50:58;100192.81;;;3.02;100.00
14273;BME280;7220;49.450;11.052;2023-02-13T20:54:59;100188.50;;;3.09;100.00
14273;BME280;7220;49.450;11.052;2023-02-13T20:59:00;100171.84;;;3.07;100.00
14273;BME280;7220;49.450;11.052;2023-02-13T21:03:01;100191.09;;;3.03;100.00
14273;BME280;7220;49.450;11.052;2023-02-13T21:07:01;100186.91;;;3.28;100.00
14273;BME280;7220;49.450;11.052;2023-02-13T21:11:04;100197.41;;;3.28;100.00
14273;BME280;7220;49.450;11.052;2023-02-13T21:15:05;100203.53;;;3.25;100.00
14273;BME280;7220;49.450;11.052;2023-02-13T21:19:11;100187.72;;;3.22;100.00
14273;BME280;7220;49.450;11.052;2023-02-13T21:23:12;100183.28;;;3.12;100.00
14273;BME280;7220;49.450;11.052;2023-02-13T21:27:12;100170.16;;;3.12;100.00
14273;BME280;7220;49.450;11.052;2023-02-13T21:31:15;100169.28;;;3.14;100.00
14273;BME280;7220;49.450;11.052;2023-02-13T21:35:15;100173.69;;;3.15;100.00
14273;BME280;7220;49.450;11.052;2023-02-13T21:39:16;100167.53;;;3.15;100.00
14273;BME280;7220;49.450;11.052;2023-02-13T21:43:16;100158.88;;;3.27;100.00
14273;BME280;7220;49.450;11.052;2023-02-13T21:47:19;100149.19;;;3.18;100.00
14273;BME280;7220;49.450;11.052;2023-02-13T21:51:21;100165.06;;;3.34;100.00
14273;BME280;7220;49.450;11.052;2023-02-13T21:55:22;100157.19;;;3.37;100.00
14273;BME280;7220;49.450;11.052;2023-02-13T21:59:31;100165.97;;;3.36;100.00
14273;BME280;7220;49.450;11.052;2023-02-13T22:03:31;100172.03;;;3.28;100.00
14273;BME280;7220;49.450;11.052;2023-02-13T22:07:35;100155.44;;;3.36;100.00
14273;BME280;7220;49.450;11.052;2023-02-13T22:11:55;100164.25;;;3.44;100.00
14273;BME280;7220;49.450;11.052;2023-02-13T22:20:01;100164.22;;;3.39;100.00
14273;BME280;7220;49.450;11.052;2023-02-13T22:24:02;100165.25;;;3.66;100.00
14273;BME280;7220;49.450;11.052;2023-02-13T22:28:03;100164.34;;;3.58;100.00
14273;BME280;7220;49.450;11.052;2023-02-13T22:32:03;100151.16;;;3.53;100.00
14273;BME280;7220;49.450;11.052;2023-02-13T22:36:04;100166.81;;;3.38;100.00
14273;BME280;7220;49.450;11.052;2023-02-13T22:40:08;100180.88;;;3.40;100.00
14273;BME280;7220;49.450;11.052;2023-02-13T22:44:11;100167.72;;;3.40;100.00
14273;BME280;7220;49.450;11.052;2023-02-13T22:48:12;100179.09;;;3.39;100.00
14273;BME280;7220;49.450;11.052;2023-02-13T22:52:12;100175.69;;;3.47;100.00
14273;BME280;7220;49.450;11.052;2023-02-13T22:56:13;100176.56;;;3.53;100.00
14273;BME280;7220;49.450;11.052;2023-02-13T23:00:14;100168.66;;;3.48;100.00
14273;BME280;7220;49.450;11.052;2023-02-13T23:04:15;100174.78;;;3.45;100.00
14273;BME280;7220;49.450;11.052;2023-02-13T23:08:15;100161.53;;;3.33;100.00
14273;BME280;7220;49.450;11.052;2023-02-13T23:12:16;100169.41;;;3.33;100.00
14273;BME280;7220;49.450;11.052;2023-02-13T23:16:37;100159.91;;;3.49;100.00
14273;BME280;7220;49.450;11.052;2023-02-13T23:21:03;100156.41;;;3.53;100.00
14273;BME280;7220;49.450;11.052;2023-02-13T23:25:04;100166.94;;;3.53;100.00
14273;BME280;7220;49.450;11.052;2023-02-13T23:29:05;100154.63;;;3.46;100.00